createdAt,value
2023-01-12T00:01:53.992Z,4.78
2023-01-12T00:04:21.007Z,4.92
2023-01-12T00:06:48.255Z,4.90
2023-01-12T00:17:14.513Z,4.62
2023-01-12T00:19:41.570Z,4.81
2023-01-12T00:22:11.982Z,4.85
2023-01-12T00:24:41.857Z,4.78
2023-01-12T00:27:11.580Z,4.76
2023-01-12T00:29:38.807Z,4.79
2023-01-12T00:32:11.699Z,4.81
2023-01-12T00:34:38.778Z,4.92
2023-01-12T00:37:05.924Z,4.82
2023-01-12T00:39:35.170Z,4.81
2023-01-12T00:42:20.931Z,4.86
2023-01-12T00:45:06.437Z,4.89
2023-01-12T00:47:33.310Z,4.84
2023-01-12T00:50:00.080Z,4.87
2023-01-12T00:52:31.501Z,5.07
2023-01-12T00:54:59.998Z,5.01
2023-01-12T00:57:28.340Z,5.14
2023-01-12T00:59:58.244Z,5.05
2023-01-12T01:02:25.353Z,5.02
2023-01-12T01:04:52.301Z,5.09
2023-01-12T01:07:21.845Z,5.04
2023-01-12T01:09:51.949Z,5.09
2023-01-12T01:12:19.098Z,5.05
2023-01-12T01:14:47.831Z,5.02
2023-01-12T01:17:14.800Z,5.01
2023-01-12T01:19:43.879Z,4.90
2023-01-12T01:22:13.120Z,4.95
2023-01-12T01:24:41.171Z,4.93
2023-01-12T01:27:07.967Z,4.90
2023-01-12T01:29:34.856Z,4.89
2023-01-12T01:32:01.628Z,4.94
2023-01-12T01:34:28.408Z,4.99
2023-01-12T01:36:55.276Z,5.01
2023-01-12T01:39:22.156Z,5.03
2023-01-12T01:41:49.039Z,5.04
2023-01-12T01:44:31.233Z,4.98
2023-01-12T01:47:11.117Z,4.98
2023-01-12T01:49:40.128Z,5.00
2023-01-12T01:52:34.768Z,4.98
2023-01-12T01:55:35.195Z,5.08
2023-01-12T01:58:07.180Z,5.06
2023-01-12T02:03:11.677Z,5.12
2023-01-12T02:05:42.969Z,5.03
2023-01-12T02:08:37.434Z,4.97
2023-01-12T02:11:04.448Z,4.97
2023-01-12T02:13:50.245Z,5.02
2023-01-12T02:16:28.118Z,5.02
2023-01-12T02:19:19.667Z,5.00
2023-01-12T02:22:05.215Z,4.96
2023-01-12T02:24:50.298Z,4.98
2023-01-12T02:27:57.012Z,4.98
2023-01-12T02:30:35.718Z,4.98
2023-01-12T02:33:44.501Z,5.00
2023-01-12T02:36:54.908Z,5.00
2023-01-12T02:39:32.121Z,5.00
2023-01-12T02:42:34.047Z,5.02
2023-01-12T02:45:06.539Z,5.00
2023-01-12T02:47:50.080Z,4.97
2023-01-12T02:50:29.633Z,4.95
2023-01-12T02:53:05.259Z,4.95
2023-01-12T02:55:33.825Z,5.00
2023-01-12T02:58:02.088Z,5.08
2023-01-12T03:00:29.951Z,4.84
2023-01-12T03:02:57.021Z,4.92
2023-01-12T03:05:23.811Z,4.98
2023-01-12T03:07:59.125Z,5.03
2023-01-12T03:10:43.898Z,5.06
2023-01-12T03:13:16.615Z,5.12
2023-01-12T03:15:49.072Z,5.10
2023-01-12T03:18:38.661Z,4.98
2023-01-12T03:21:40.493Z,5.01
2023-01-12T03:24:13.297Z,4.93
2023-01-12T03:26:47.356Z,5.01
2023-01-12T03:29:27.515Z,4.93
2023-01-12T03:31:55.294Z,4.91
2023-01-12T03:34:22.838Z,4.98
2023-01-12T03:36:58.657Z,5.06
2023-01-12T03:39:29.039Z,5.01
2023-01-12T03:42:10.240Z,5.00
2023-01-12T03:45:00.992Z,4.98
2023-01-12T03:47:31.344Z,5.04
2023-01-12T03:50:06.575Z,5.08
2023-01-12T03:52:36.691Z,5.09
2023-01-12T03:55:06.530Z,4.98
2023-01-12T03:57:35.186Z,5.00
2023-01-12T04:00:06.281Z,4.95
2023-01-12T04:02:34.187Z,4.98
2023-01-12T04:05:01.049Z,5.05
2023-01-12T04:07:27.952Z,4.96
2023-01-12T04:09:54.768Z,4.98
2023-01-12T04:12:21.576Z,5.02
2023-01-12T04:14:48.941Z,4.98
2023-01-12T04:17:16.683Z,5.01
2023-01-12T04:19:43.716Z,5.02
2023-01-12T04:22:33.760Z,5.00
2023-01-12T04:25:00.608Z,4.92
2023-01-12T04:27:27.418Z,5.01
2023-01-12T04:29:55.069Z,4.94
2023-01-12T04:32:22.091Z,5.04
2023-01-12T04:34:49.098Z,4.95
2023-01-12T04:37:16.055Z,5.01
2023-01-12T04:39:43.073Z,4.94
2023-01-12T04:42:29.870Z,4.99
2023-01-12T04:44:56.733Z,5.01
2023-01-12T04:47:24.089Z,4.99
2023-01-12T04:49:51.285Z,5.02
2023-01-12T04:52:18.037Z,5.00
2023-01-12T04:54:44.795Z,4.90
2023-01-12T04:57:11.686Z,4.94
2023-01-12T04:59:38.452Z,4.95
2023-01-12T05:02:05.434Z,5.02
2023-01-12T05:04:32.403Z,4.94
2023-01-12T05:06:59.305Z,4.95
2023-01-12T05:09:44.861Z,5.00
2023-01-12T05:12:11.869Z,5.03
2023-01-12T05:14:38.889Z,5.03
2023-01-12T05:17:05.739Z,4.97
2023-01-12T05:19:32.513Z,4.92
2023-01-12T05:21:59.477Z,5.01
2023-01-12T05:24:26.384Z,5.01
2023-01-12T05:26:53.199Z,4.78
2023-01-12T05:29:19.982Z,4.81
2023-01-12T05:31:46.944Z,4.86
2023-01-12T05:34:14.107Z,4.90
2023-01-12T05:36:40.983Z,4.92
2023-01-12T05:39:08.124Z,4.89
2023-01-12T05:41:35.096Z,5.01
2023-01-12T05:44:01.988Z,5.00
2023-01-12T05:46:34.785Z,4.94
2023-01-12T05:49:01.689Z,4.97
2023-01-12T05:51:31.033Z,5.01
2023-01-12T05:53:58.035Z,5.08
2023-01-12T05:56:27.745Z,5.02
2023-01-12T05:58:57.466Z,5.00
2023-01-12T06:01:42.948Z,5.02
2023-01-12T06:04:10.459Z,5.03
2023-01-12T06:06:37.316Z,5.07
2023-01-12T06:09:04.495Z,5.06
2023-01-12T06:11:49.835Z,5.09
2023-01-12T06:14:16.930Z,5.08
2023-01-12T06:16:44.584Z,5.00
2023-01-12T06:19:12.918Z,5.07
2023-01-12T06:21:40.752Z,5.08
2023-01-12T06:24:08.127Z,4.83
2023-01-12T06:26:34.983Z,5.00
2023-01-12T06:29:03.665Z,5.19
2023-01-12T06:31:31.010Z,5.34
2023-01-12T06:33:57.902Z,5.30
2023-01-12T06:36:24.785Z,5.33
2023-01-12T06:38:51.607Z,5.26
2023-01-12T06:41:37.047Z,5.31
2023-01-12T06:44:22.101Z,5.31
2023-01-12T06:46:49.100Z,5.26
2023-01-12T06:49:18.712Z,5.19
2023-01-12T06:51:48.666Z,5.29
2023-01-12T06:54:18.686Z,5.29
2023-01-12T06:56:45.858Z,5.27
2023-01-12T06:59:13.188Z,5.25
2023-01-12T07:01:41.311Z,5.23
2023-01-12T07:04:08.516Z,5.24
2023-01-12T07:06:35.469Z,5.21
2023-01-12T07:09:03.050Z,5.28
2023-01-12T07:11:29.824Z,5.25
2023-01-12T07:13:56.629Z,5.25
2023-01-12T07:16:23.719Z,5.29
2023-01-12T07:18:50.725Z,5.32
2023-01-12T07:21:19.676Z,5.30
2023-01-12T07:23:46.541Z,5.37
2023-01-12T07:26:13.912Z,5.47
2023-01-12T07:28:41.242Z,5.39
2023-01-12T07:31:08.194Z,5.20
2023-01-12T07:33:36.854Z,5.18
2023-01-12T07:36:04.561Z,5.20
2023-01-12T07:38:32.069Z,5.24
2023-01-12T07:41:00.861Z,5.15
2023-01-12T07:43:28.373Z,5.25
2023-01-12T07:45:59.476Z,5.26
2023-01-12T07:48:27.634Z,5.43
2023-01-12T07:50:55.071Z,5.32
2023-01-12T07:53:21.972Z,5.36
2023-01-12T07:55:48.881Z,5.61
2023-01-12T08:31:00.318Z,5.93
2023-01-12T08:41:32.811Z,6.27
2023-01-12T08:52:15.097Z,6.27
2023-01-12T08:54:42.215Z,6.49
2023-01-12T09:26:46.790Z,6.34
2023-01-12T09:29:14.950Z,6.43
2023-01-12T10:01:29.142Z,6.61
2023-01-12T11:22:53.867Z,6.49
2023-01-12T12:07:44.058Z,6.48
2023-01-12T12:10:43.328Z,6.66
2023-01-12T12:13:33.987Z,6.58
2023-01-12T12:16:04.481Z,6.58
2023-01-12T12:19:02.335Z,6.82
2023-01-12T12:21:53.150Z,6.97
2023-01-12T12:24:42.960Z,6.96
2023-01-12T12:27:36.587Z,6.93
2023-01-12T12:30:40.290Z,6.95
2023-01-12T12:33:18.568Z,6.79
2023-01-12T12:36:09.356Z,6.92
2023-01-12T12:39:01.976Z,6.86
2023-01-12T12:41:58.117Z,6.73
2023-01-12T12:45:17.309Z,6.66
2023-01-12T12:48:00.400Z,6.52
2023-01-12T12:51:04.935Z,6.58
2023-01-12T12:53:34.116Z,6.46
2023-01-12T12:56:09.732Z,6.30
2023-01-12T12:58:48.021Z,6.23
2023-01-12T13:01:20.604Z,5.96
2023-01-12T13:03:52.749Z,6.20
2023-01-12T13:06:22.813Z,6.19
2023-01-12T13:08:51.827Z,6.09
2023-01-12T13:11:19.345Z,6.11
2023-01-12T13:14:06.147Z,6.27
2023-01-12T13:16:33.167Z,6.31
2023-01-12T13:18:59.907Z,6.41
2023-01-12T13:21:26.689Z,6.22
2023-01-12T13:24:11.938Z,6.03
2023-01-12T13:26:42.589Z,6.10
2023-01-12T13:29:24.934Z,5.87
2023-01-12T13:31:54.875Z,6.07
2023-01-12T13:34:39.596Z,6.10
2023-01-12T13:37:44.643Z,6.19
2023-01-12T13:40:18.903Z,6.35
2023-01-12T13:43:04.946Z,6.27
2023-01-12T13:45:33.199Z,6.36
2023-01-12T13:48:00.058Z,6.38
2023-01-12T13:50:28.514Z,6.50
2023-01-12T13:53:19.241Z,6.49
2023-01-12T13:55:58.994Z,6.44
2023-01-12T13:58:26.917Z,6.47
2023-01-12T14:01:01.607Z,6.46
2023-01-12T14:03:28.549Z,6.58
2023-01-12T14:06:54.489Z,6.65
2023-01-12T14:09:30.086Z,6.64
2023-01-12T14:12:15.690Z,6.72
2023-01-12T14:15:13.172Z,6.76
2023-01-12T14:17:49.396Z,6.74
2023-01-12T14:20:26.101Z,6.79
2023-01-12T14:23:16.482Z,6.78
2023-01-12T14:25:44.147Z,6.76
2023-01-12T14:28:22.911Z,6.81
2023-01-12T14:30:53.222Z,6.79
2023-01-12T14:33:29.644Z,6.79
2023-01-12T14:36:02.461Z,6.76
2023-01-12T14:38:30.383Z,6.75
2023-01-12T14:41:29.030Z,6.78
2023-01-12T14:44:14.537Z,6.86
2023-01-12T14:46:49.825Z,6.72
2023-01-12T14:49:28.946Z,6.76
2023-01-12T14:51:57.923Z,6.78
2023-01-12T14:54:30.860Z,6.73
2023-01-12T14:57:07.472Z,6.67
2023-01-12T14:59:36.084Z,6.68
2023-01-12T15:02:15.308Z,6.63
2023-01-12T15:05:02.706Z,6.59
2023-01-12T15:07:55.385Z,6.67
2023-01-12T15:10:30.839Z,6.70
2023-01-12T15:13:11.972Z,6.68
2023-01-12T15:16:00.854Z,6.75
2023-01-12T15:18:46.330Z,6.66
2023-01-12T15:21:31.760Z,6.78
2023-01-12T15:24:17.263Z,6.70
2023-01-12T15:26:51.106Z,6.70
2023-01-12T15:29:25.169Z,6.80
2023-01-12T15:31:52.372Z,6.77
2023-01-12T15:34:19.184Z,6.59
2023-01-12T15:36:45.981Z,6.72
2023-01-12T15:39:14.697Z,6.58
2023-01-12T15:42:00.679Z,6.45
2023-01-12T15:44:27.566Z,6.36
2023-01-12T15:46:54.401Z,6.38
2023-01-12T15:49:21.678Z,6.42
2023-01-12T15:51:50.935Z,6.42
2023-01-12T15:54:19.709Z,6.42
2023-01-12T15:56:48.185Z,6.48
2023-01-12T15:59:15.382Z,6.42
2023-01-12T16:01:49.723Z,6.36
2023-01-12T16:04:43.087Z,6.43
2023-01-12T16:07:11.177Z,6.45
2023-01-12T16:09:38.027Z,6.40
2023-01-12T16:12:05.160Z,6.45
2023-01-12T16:14:31.923Z,6.48
2023-01-12T16:16:58.863Z,6.52
2023-01-12T16:19:26.483Z,6.46
2023-01-12T16:21:55.370Z,6.48
2023-01-12T16:24:24.437Z,6.39
2023-01-12T16:26:51.397Z,6.48
2023-01-12T16:29:19.371Z,6.41
2023-01-12T16:31:46.292Z,6.52
2023-01-12T16:34:13.115Z,6.37
2023-01-12T16:36:39.955Z,6.28
2023-01-12T16:39:06.839Z,6.20
2023-01-12T16:41:33.635Z,6.29
2023-01-12T16:44:00.450Z,6.25
2023-01-12T16:46:27.392Z,6.30
2023-01-12T16:48:56.517Z,6.35
2023-01-12T16:51:23.454Z,6.30
2023-01-12T16:53:51.680Z,6.13
2023-01-12T16:56:18.588Z,5.97
2023-01-12T16:58:48.791Z,5.93
2023-01-12T17:01:19.056Z,5.94
2023-01-12T17:03:46.254Z,6.07
2023-01-12T17:06:16.721Z,6.21
2023-01-12T17:08:43.710Z,6.29
2023-01-12T17:11:13.698Z,6.17
2023-01-12T17:13:41.066Z,6.34
2023-01-12T17:16:09.871Z,6.36
2023-01-12T17:18:38.734Z,6.41
2023-01-12T17:21:09.412Z,6.47
2023-01-12T17:23:38.497Z,6.49
2023-01-12T17:26:17.717Z,6.55
2023-01-12T17:28:46.578Z,6.48
2023-01-12T17:31:17.198Z,6.49
2023-01-12T17:33:44.816Z,6.51
2023-01-12T17:36:12.992Z,6.50
2023-01-12T17:38:40.366Z,6.43
2023-01-12T17:41:34.667Z,6.36
2023-01-12T17:44:04.030Z,6.37
2023-01-12T17:46:31.490Z,6.44
2023-01-12T17:49:00.007Z,6.37
2023-01-12T17:51:27.170Z,6.42
2023-01-12T17:53:58.673Z,6.21
2023-01-12T17:56:28.963Z,6.29
2023-01-12T17:58:56.045Z,6.09
2023-01-12T18:01:26.201Z,6.34
2023-01-12T18:03:53.413Z,6.34
2023-01-12T18:06:26.408Z,6.40
2023-01-12T18:08:56.969Z,6.38
2023-01-12T18:11:24.238Z,6.36
2023-01-12T18:13:51.250Z,6.20
2023-01-12T18:16:18.309Z,6.08
2023-01-12T18:18:45.212Z,6.11
2023-01-12T18:21:15.455Z,6.17
2023-01-12T18:23:43.826Z,6.16
2023-01-12T18:26:24.033Z,6.19
2023-01-12T18:28:52.196Z,6.27
2023-01-12T18:31:22.858Z,6.27
2023-01-12T18:33:53.904Z,6.25
2023-01-12T18:36:23.781Z,6.43
2023-01-12T18:38:51.923Z,6.40
2023-01-12T18:41:38.645Z,6.33
2023-01-12T18:44:06.498Z,6.36
2023-01-12T18:46:54.384Z,6.32
2023-01-12T18:49:24.448Z,6.43
2023-01-12T18:52:10.776Z,6.36
2023-01-12T18:54:42.873Z,6.28
2023-01-12T18:57:09.728Z,6.28
2023-01-12T18:59:36.902Z,6.09
2023-01-12T19:02:03.924Z,6.17
2023-01-12T19:04:42.877Z,6.23
2023-01-12T19:07:12.500Z,6.30
2023-01-12T19:09:39.448Z,6.33
2023-01-12T19:12:06.726Z,6.32
2023-01-12T19:14:52.117Z,6.36
2023-01-12T19:17:30.071Z,6.31
2023-01-12T19:19:59.244Z,6.39
2023-01-12T19:22:45.765Z,6.45
2023-01-12T19:25:36.768Z,6.35
2023-01-12T19:28:23.172Z,6.35
2023-01-12T19:30:50.135Z,6.41
2023-01-12T19:33:18.016Z,6.40
2023-01-12T19:35:46.406Z,6.45
2023-01-12T19:38:14.947Z,6.33
2023-01-12T19:40:50.770Z,6.37
2023-01-12T19:43:27.755Z,6.34
2023-01-12T19:45:59.119Z,6.40
2023-01-12T19:48:26.404Z,6.37
2023-01-12T19:50:54.347Z,6.36
2023-01-12T19:53:28.307Z,6.42
2023-01-12T19:55:55.198Z,6.49
2023-01-12T19:58:22.357Z,6.38
2023-01-12T20:00:50.049Z,6.41
2023-01-12T20:03:19.418Z,6.45
2023-01-12T20:05:48.768Z,6.56
2023-01-12T20:08:15.763Z,6.43
2023-01-12T20:10:42.614Z,6.37
2023-01-12T20:13:12.890Z,6.40
2023-01-12T20:15:41.142Z,6.42
2023-01-12T20:18:08.858Z,6.40
2023-01-12T20:20:36.131Z,6.43
2023-01-12T20:23:03.295Z,6.41
2023-01-12T20:25:30.197Z,6.40
2023-01-12T20:27:57.816Z,6.47
2023-01-12T20:30:37.523Z,6.35
2023-01-12T20:33:06.795Z,6.32
2023-01-12T20:35:35.318Z,6.32
2023-01-12T20:38:03.836Z,6.37
2023-01-12T20:40:30.909Z,6.37
2023-01-12T20:43:16.350Z,6.33
2023-01-12T20:45:44.346Z,6.40
2023-01-12T20:48:15.580Z,6.37
2023-01-12T20:50:46.353Z,6.34
2023-01-12T20:53:14.540Z,6.29
2023-01-12T20:55:51.910Z,6.20
2023-01-12T20:58:19.915Z,6.23
2023-01-12T21:00:46.980Z,6.16
2023-01-12T21:03:13.961Z,6.14
2023-01-12T21:05:43.069Z,6.17
2023-01-12T21:08:10.328Z,6.08
2023-01-12T21:10:38.550Z,6.16
2023-01-12T21:13:06.547Z,6.07
2023-01-12T21:15:33.900Z,6.03
2023-01-12T21:18:00.811Z,5.82
2023-01-12T21:20:27.684Z,5.85
2023-01-12T21:22:54.458Z,5.87
2023-01-12T21:25:23.317Z,5.71
2023-01-12T21:27:50.310Z,5.62
2023-01-12T21:30:17.345Z,5.59
2023-01-12T21:32:44.230Z,5.54
2023-01-12T21:35:11.109Z,5.47
2023-01-12T21:37:37.948Z,5.44
2023-01-12T21:40:05.222Z,5.37
2023-01-12T21:42:50.679Z,5.33
2023-01-12T21:45:18.083Z,5.20
2023-01-12T21:47:48.104Z,5.25
2023-01-12T21:50:15.180Z,5.10
2023-01-12T21:52:42.232Z,5.17
2023-01-12T21:55:13.903Z,5.12
2023-01-12T21:57:42.713Z,5.14
2023-01-12T22:00:10.563Z,5.19
2023-01-12T22:02:37.322Z,5.14
2023-01-12T22:05:04.494Z,5.22
2023-01-12T22:07:31.491Z,5.20
2023-01-12T22:10:18.434Z,5.15
2023-01-12T22:12:45.957Z,5.23
2023-01-12T22:15:13.133Z,5.19
2023-01-12T22:17:40.603Z,5.29
2023-01-12T22:20:08.456Z,5.27
2023-01-12T22:22:38.629Z,5.22
2023-01-12T22:25:07.413Z,5.08
2023-01-12T22:27:35.344Z,5.25
2023-01-12T22:30:02.665Z,5.29
2023-01-12T22:32:30.037Z,5.33
2023-01-12T22:34:59.093Z,4.91
2023-01-12T22:37:26.900Z,5.03
2023-01-12T22:39:54.097Z,5.04
2023-01-12T22:42:42.375Z,4.97
2023-01-12T22:45:10.347Z,4.82
2023-01-12T22:47:47.550Z,4.79
2023-01-12T22:50:15.988Z,4.89
2023-01-12T22:52:42.823Z,4.87
2023-01-12T22:55:09.818Z,4.81
2023-01-12T22:57:36.652Z,4.71
2023-01-12T23:00:05.026Z,4.67
2023-01-12T23:02:50.608Z,4.61
2023-01-12T23:05:17.945Z,4.73
2023-01-12T23:07:44.731Z,4.70
2023-01-12T23:10:11.666Z,4.68
2023-01-12T23:12:38.505Z,4.67
2023-01-12T23:15:23.986Z,4.66
2023-01-12T23:17:50.820Z,4.71
2023-01-12T23:20:17.712Z,4.74
2023-01-12T23:22:44.647Z,4.77
2023-01-12T23:25:11.384Z,4.60
2023-01-12T23:27:38.257Z,4.69
2023-01-12T23:30:05.388Z,4.69
2023-01-12T23:32:32.166Z,4.61
2023-01-12T23:34:59.044Z,4.63
2023-01-12T23:37:25.899Z,4.70
2023-01-12T23:39:52.634Z,4.75
2023-01-12T23:42:19.488Z,4.63
2023-01-12T23:44:47.086Z,4.59
2023-01-12T23:47:15.777Z,4.58
2023-01-12T23:49:43.057Z,4.57
2023-01-12T23:52:10.255Z,4.46
2023-01-12T23:54:38.774Z,4.45
2023-01-12T23:57:06.104Z,4.38
2023-01-12T23:59:32.959Z,4.18
